Terminal Aerodrome Forecast
Issued by NWS

Home | Current Version | Previous Version | Text Only | Print | Product List | Glossary On
Versions: 1 2 3 4 5 6 7 8 9 10 11 12
000
FTUS42 TJSJ 291748
TAFJMZ
TAF
TJMZ 291748Z 2918/3018 08012KT P6SM -SHRA SCT020 SCT030 BKN050
      TEMPO 2918/2921 3SM TSRA BKN020CB BKN030
     FM292300 06007KT P6SM FEW025 SCT080
     FM301500 09010KT P6SM VCSH SCT025 SCT040 BKN050
      AMD NOT SKED=

USA.gov is the U.S. government's official web portal to all federal, state and local government web resources and services.